Terminal Aerodrome Forecast
Issued by NWS

Home | Current Version | Previous Version | Text Only | Print | Product List | Glossary On
Versions: 1 2 3 4 5 6 7 8 9 10 11 12 13 14 15 16 17 18 19 20 21 22 23 24 25 26
000
FTUS44 KFWD 030904 AAA
TAFAFW
TAF AMD
KAFW 030904Z 0309/0406 19011KT P6SM FEW025 BKN200
     FM031200 21013KT P6SM VCSH SCT020 BKN200
     FM031700 20014KT P6SM VCTS BKN035CB BKN250
      TEMPO 0320/0324 VRB20G30KT 5SM -TSRA BKN025CB
     FM040200 18011KT P6SM BKN150=

USA.gov is the U.S. government's official web portal to all federal, state and local government web resources and services.